Schedule Details


Flight Number: CTN4434
Departure: Krk Island (LDRI) at 12:15
Arrival: Munich (EDDM) at 13:35
Route: ALIVO DCT NIPEL DCT REDBU Q112 NAPSA

Weather Information
LDRI 170000Z 28003KT 250V330 CAVOK 13/06 Q1019
EDDM 170020Z 00000KT 4500 2000S R08R/0650N BCFG NSC 00/00 Q1021 BECMG 2000
Schedule Frequency

Route Map